Date,TemperatureHighF,TemperatureAvgF,TemperatureLowF,DewpointHighF,DewpointAvgF,DewpointLowF,HumidityHigh,HumidityAvg,HumidityLow,PressureMaxIn,PressureMinIn,WindSpeedMaxMPH,WindSpeedAvgMPH,GustSpeedMaxMPH,PrecipitationSumIn
2013-2-1,51.1,45.4,41.4,45.4,37.9,29.1,92,76,47,0.00,0.00,6,0,6,0.04
2013-2-2,42.4,39.5,36.9,37.8,35.2,31.6,92,85,69,0.00,0.00,6,0,6,0.00
2013-2-3,47.8,42.3,37.2,43.2,38.2,34.8,93,86,70,0.00,0.00,6,0,6,0.08
2013-2-4,50.5,45.3,42.4,39.8,34.9,26.8,86,69,41,0.00,0.00,6,0,6,0.00
2013-2-5,49.6,45.3,42.3,37.5,32.2,26.1,78,61,41,0.00,0.00,10,0,10,0.24
2013-2-6,49.8,44.6,41.7,33.5,27.6,21.2,71,52,33,0.00,0.00,0,0,0,0.04
2013-2-7,48.6,41.8,33.6,31.8,22.0,14.5,69,47,26,0.00,0.00,10,1,10,0.08
2013-2-8,44.4,37.2,30.4,30.7,24.3,19.2,85,61,38,0.00,0.00,5,0,5,0.00
2013-2-9,45.0,40.7,37.8,38.5,31.5,24.3,84,70,56,0.00,0.00,4,0,4,0.00
2013-2-10,44.8,40.1,35.4,36.9,29.5,20.7,89,68,39,0.00,0.00,6,0,6,0.00
2013-2-11,47.3,42.3,37.2,34.9,28.1,21.8,78,59,37,0.00,0.00,5,0,5,0.00
2013-2-12,48.0,45.4,41.5,43.4,36.2,27.4,84,71,53,0.00,0.00,5,0,5,0.12
2013-2-13,47.5,45.0,43.3,39.7,30.3,24.9,79,57,42,0.00,0.00,0,0,0,0.00
2013-2-14,50.0,45.1,41.5,39.7,33.1,29.0,82,63,45,0.00,0.00,0,0,0,0.04
2013-2-15,54.3,43.1,35.8,39.8,32.3,27.8,88,68,37,0.00,0.00,8,0,8,0.00
2013-2-16,52.2,43.5,37.9,42.1,31.3,19.9,90,64,29,0.00,0.00,17,1,17,0.39
2013-2-17,48.0,41.0,37.9,36.1,27.1,19.1,86,60,34,0.00,0.00,9,0,9,0.39
2013-2-18,47.1,40.3,35.1,29.2,24.3,19.6,72,54,36,0.00,0.00,7,0,7,0.00
2013-2-19,49.3,40.4,34.9,26.8,18.8,10.2,69,43,21,0.00,0.00,9,1,9,0.00
2013-2-20,45.9,39.5,36.0,34.3,27.1,20.0,80,62,38,0.00,0.00,8,0,8,0.00
2013-2-21,42.4,40.8,37.6,34.8,28.7,23.9,84,63,48,0.00,0.00,12,1,12,0.04
2013-2-22,44.8,41.2,38.3,34.7,28.3,20.1,77,61,46,0.00,0.00,0,0,0,0.20
2013-2-23,48.4,41.3,37.8,29.9,24.2,16.1,70,52,29,0.00,0.00,9,1,9,0.04
2013-2-24,47.3,42.6,38.5,29.4,23.2,19.0,69,47,34,0.00,0.00,15,1,15,0.00
2013-2-25,50.4,42.3,36.5,34.0,22.6,7.2,75,47,22,0.00,0.00,18,1,18,0.12
2013-2-26,49.1,41.9,34.7,26.2,18.4,10.0,64,41,21,0.00,0.00,10,0,10,0.00
2013-2-27,50.2,43.8,37.0,40.6,30.5,21.6,84,62,36,0.00,0.00,10,0,10,0.24
2013-2-28,51.6,45.6,41.4,48.5,41.4,37.0,92,85,74,0.00,0.00,13,0,13,0.20